sensor_id;sensor_type;location;lat;lon;timestamp;P1;durP1;ratioP1;P2;durP2;ratioP2
18612;SDS011;9436;52.152;21.032;2022-08-19T00:00:22;10.73;;;9.53;;
18612;SDS011;9436;52.152;21.032;2022-08-19T00:02:49;13.27;;;10.47;;
18612;SDS011;9436;52.152;21.032;2022-08-19T00:05:16;11.20;;;10.20;;
18612;SDS011;9436;52.152;21.032;2022-08-19T00:07:44;12.13;;;10.70;;
18612;SDS011;9436;52.152;21.032;2022-08-19T00:10:13;11.30;;;10.20;;
18612;SDS011;9436;52.152;21.032;2022-08-19T00:12:41;12.13;;;10.73;;
18612;SDS011;9436;52.152;21.032;2022-08-19T00:15:10;11.10;;;9.87;;
18612;SDS011;9436;52.152;21.032;2022-08-19T00:17:40;11.53;;;10.43;;
18612;SDS011;9436;52.152;21.032;2022-08-19T00:20:08;12.57;;;10.27;;
18612;SDS011;9436;52.152;21.032;2022-08-19T00:22:37;11.73;;;10.57;;
18612;SDS011;9436;52.152;21.032;2022-08-19T00:25:06;11.43;;;10.10;;
18612;SDS011;9436;52.152;21.032;2022-08-19T00:27:35;11.47;;;10.30;;
18612;SDS011;9436;52.152;21.032;2022-08-19T00:30:03;11.33;;;10.30;;
18612;SDS011;9436;52.152;21.032;2022-08-19T00:32:30;10.90;;;9.80;;
18612;SDS011;9436;52.152;21.032;2022-08-19T00:34:59;11.17;;;9.90;;
18612;SDS011;9436;52.152;21.032;2022-08-19T00:37:26;11.13;;;10.07;;
18612;SDS011;9436;52.152;21.032;2022-08-19T00:39:53;11.33;;;10.37;;
18612;SDS011;9436;52.152;21.032;2022-08-19T00:42:21;13.77;;;10.90;;
18612;SDS011;9436;52.152;21.032;2022-08-19T00:44:50;10.90;;;9.57;;
18612;SDS011;9436;52.152;21.032;2022-08-19T00:47:16;14.53;;;10.70;;
18612;SDS011;9436;52.152;21.032;2022-08-19T00:49:45;11.23;;;10.13;;
18612;SDS011;9436;52.152;21.032;2022-08-19T00:52:17;10.87;;;9.80;;
18612;SDS011;9436;52.152;21.032;2022-08-19T00:54:47;13.80;;;10.70;;
18612;SDS011;9436;52.152;21.032;2022-08-19T00:57:18;10.90;;;9.90;;
18612;SDS011;9436;52.152;21.032;2022-08-19T00:59:51;10.87;;;9.93;;
18612;SDS011;9436;52.152;21.032;2022-08-19T01:02:21;14.30;;;10.30;;
18612;SDS011;9436;52.152;21.032;2022-08-19T01:04:50;13.20;;;9.67;;
18612;SDS011;9436;52.152;21.032;2022-08-19T01:07:16;11.20;;;9.90;;
18612;SDS011;9436;52.152;21.032;2022-08-19T01:09:44;11.50;;;10.40;;
18612;SDS011;9436;52.152;21.032;2022-08-19T01:12:11;11.40;;;10.30;;
18612;SDS011;9436;52.152;21.032;2022-08-19T01:14:38;11.13;;;10.13;;
18612;SDS011;9436;52.152;21.032;2022-08-19T01:17:07;13.07;;;10.17;;
18612;SDS011;9436;52.152;21.032;2022-08-19T01:19:36;11.47;;;10.47;;
18612;SDS011;9436;52.152;21.032;2022-08-19T01:22:06;11.20;;;9.80;;
18612;SDS011;9436;52.152;21.032;2022-08-19T01:24:38;11.30;;;10.23;;
18612;SDS011;9436;52.152;21.032;2022-08-19T01:27:06;12.10;;;10.93;;
18612;SDS011;9436;52.152;21.032;2022-08-19T01:29:33;13.30;;;11.27;;
18612;SDS011;9436;52.152;21.032;2022-08-19T01:32:03;12.73;;;11.00;;
18612;SDS011;9436;52.152;21.032;2022-08-19T01:34:31;12.60;;;10.93;;
18612;SDS011;9436;52.152;21.032;2022-08-19T01:36:59;11.97;;;10.87;;
18612;SDS011;9436;52.152;21.032;2022-08-19T01:39:27;12.33;;;10.93;;
18612;SDS011;9436;52.152;21.032;2022-08-19T01:41:55;14.77;;;11.77;;
18612;SDS011;9436;52.152;21.032;2022-08-19T01:44:22;12.57;;;11.27;;
18612;SDS011;9436;52.152;21.032;2022-08-19T01:46:50;12.80;;;11.50;;
18612;SDS011;9436;52.152;21.032;2022-08-19T01:49:19;13.10;;;11.90;;
18612;SDS011;9436;52.152;21.032;2022-08-19T01:51:47;13.27;;;11.97;;
18612;SDS011;9436;52.152;21.032;2022-08-19T01:54:16;13.40;;;12.10;;
18612;SDS011;9436;52.152;21.032;2022-08-19T01:56:44;13.97;;;12.60;;
18612;SDS011;9436;52.152;21.032;2022-08-19T01:59:13;14.80;;;12.43;;
18612;SDS011;9436;52.152;21.032;2022-08-19T02:01:43;13.10;;;11.87;;
18612;SDS011;9436;52.152;21.032;2022-08-19T02:04:10;12.97;;;11.77;;
18612;SDS011;9436;52.152;21.032;2022-08-19T02:06:37;13.50;;;12.23;;
18612;SDS011;9436;52.152;21.032;2022-08-19T02:09:06;13.23;;;11.90;;
18612;SDS011;9436;52.152;21.032;2022-08-19T02:11:34;13.90;;;12.60;;
18612;SDS011;9436;52.152;21.032;2022-08-19T02:14:04;13.70;;;12.33;;
18612;SDS011;9436;52.152;21.032;2022-08-19T02:16:33;13.90;;;12.40;;
18612;SDS011;9436;52.152;21.032;2022-08-19T02:19:01;13.93;;;12.53;;
18612;SDS011;9436;52.152;21.032;2022-08-19T02:21:29;13.87;;;12.57;;
18612;SDS011;9436;52.152;21.032;2022-08-19T02:23:56;14.07;;;12.67;;
18612;SDS011;9436;52.152;21.032;2022-08-19T02:26:24;13.70;;;12.40;;
18612;SDS011;9436;52.152;21.032;2022-08-19T02:28:52;13.80;;;12.50;;
18612;SDS011;9436;52.152;21.032;2022-08-19T02:31:20;13.90;;;12.57;;
18612;SDS011;9436;52.152;21.032;2022-08-19T02:33:50;14.13;;;12.73;;
18612;SDS011;9436;52.152;21.032;2022-08-19T02:36:18;15.70;;;13.60;;
18612;SDS011;9436;52.152;21.032;2022-08-19T02:38:45;14.33;;;13.03;;
18612;SDS011;9436;52.152;21.032;2022-08-19T02:41:12;13.87;;;12.57;;
18612;SDS011;9436;52.152;21.032;2022-08-19T02:43:42;13.77;;;12.40;;
18612;SDS011;9436;52.152;21.032;2022-08-19T02:46:13;13.50;;;12.20;;
18612;SDS011;9436;52.152;21.032;2022-08-19T02:48:42;14.60;;;12.73;;
18612;SDS011;9436;52.152;21.032;2022-08-19T02:51:14;13.30;;;12.10;;
18612;SDS011;9436;52.152;21.032;2022-08-19T02:53:42;13.60;;;12.23;;
18612;SDS011;9436;52.152;21.032;2022-08-19T02:56:09;13.57;;;12.20;;
18612;SDS011;9436;52.152;21.032;2022-08-19T02:58:36;13.73;;;12.43;;
18612;SDS011;9436;52.152;21.032;2022-08-19T03:01:03;13.70;;;12.30;;
18612;SDS011;9436;52.152;21.032;2022-08-19T03:03:31;14.00;;;12.60;;
18612;SDS011;9436;52.152;21.032;2022-08-19T03:06:08;13.93;;;12.53;;
18612;SDS011;9436;52.152;21.032;2022-08-19T03:08:39;13.97;;;12.73;;
18612;SDS011;9436;52.152;21.032;2022-08-19T03:11:12;13.27;;;11.97;;
18612;SDS011;9436;52.152;21.032;2022-08-19T03:13:39;13.73;;;12.47;;
18612;SDS011;9436;52.152;21.032;2022-08-19T03:16:08;14.13;;;12.63;;
18612;SDS011;9436;52.152;21.032;2022-08-19T03:18:36;13.63;;;12.40;;
18612;SDS011;9436;52.152;21.032;2022-08-19T03:21:03;14.03;;;12.63;;
18612;SDS011;9436;52.152;21.032;2022-08-19T03:23:32;14.30;;;13.00;;
18612;SDS011;9436;52.152;21.032;2022-08-19T03:26:02;13.83;;;12.53;;
18612;SDS011;9436;52.152;21.032;2022-08-19T03:28:30;13.73;;;12.37;;
18612;SDS011;9436;52.152;21.032;2022-08-19T03:30:59;14.67;;;13.27;;
18612;SDS011;9436;52.152;21.032;2022-08-19T03:33:28;13.90;;;12.63;;
18612;SDS011;9436;52.152;21.032;2022-08-19T03:35:59;14.10;;;12.70;;
18612;SDS011;9436;52.152;21.032;2022-08-19T03:38:33;14.70;;;13.20;;
18612;SDS011;9436;52.152;21.032;2022-08-19T03:41:04;15.47;;;13.90;;
18612;SDS011;9436;52.152;21.032;2022-08-19T03:43:33;14.23;;;12.87;;
18612;SDS011;9436;52.152;21.032;2022-08-19T03:46:01;14.33;;;12.90;;
18612;SDS011;9436;52.152;21.032;2022-08-19T03:48:30;14.73;;;13.10;;
18612;SDS011;9436;52.152;21.032;2022-08-19T03:50:57;17.10;;;13.33;;
18612;SDS011;9436;52.152;21.032;2022-08-19T03:53:25;14.23;;;12.83;;
18612;SDS011;9436;52.152;21.032;2022-08-19T03:55:54;14.90;;;13.30;;
18612;SDS011;9436;52.152;21.032;2022-08-19T03:58:23;15.77;;;13.93;;
18612;SDS011;9436;52.152;21.032;2022-08-19T04:00:49;15.00;;;13.63;;
18612;SDS011;9436;52.152;21.032;2022-08-19T04:03:16;14.53;;;13.20;;
18612;SDS011;9436;52.152;21.032;2022-08-19T04:05:45;14.47;;;13.10;;
18612;SDS011;9436;52.152;21.032;2022-08-19T04:08:13;14.73;;;13.37;;
18612;SDS011;9436;52.152;21.032;2022-08-19T04:10:45;15.23;;;13.80;;
18612;SDS011;9436;52.152;21.032;2022-08-19T04:13:14;15.37;;;13.77;;
18612;SDS011;9436;52.152;21.032;2022-08-19T04:15:43;13.90;;;12.70;;
18612;SDS011;9436;52.152;21.032;2022-08-19T04:18:11;14.53;;;13.23;;
18612;SDS011;9436;52.152;21.032;2022-08-19T04:20:40;14.47;;;13.07;;
18612;SDS011;9436;52.152;21.032;2022-08-19T04:23:08;15.33;;;14.00;;
18612;SDS011;9436;52.152;21.032;2022-08-19T04:25:36;14.83;;;13.33;;
18612;SDS011;9436;52.152;21.032;2022-08-19T04:28:03;14.27;;;12.80;;
18612;SDS011;9436;52.152;21.032;2022-08-19T04:30:36;14.47;;;13.00;;
18612;SDS011;9436;52.152;21.032;2022-08-19T04:33:04;14.97;;;13.53;;
18612;SDS011;9436;52.152;21.032;2022-08-19T04:35:34;14.60;;;13.17;;
18612;SDS011;9436;52.152;21.032;2022-08-19T04:38:01;15.07;;;13.67;;
18612;SDS011;9436;52.152;21.032;2022-08-19T04:40:28;15.33;;;13.70;;
18612;SDS011;9436;52.152;21.032;2022-08-19T04:43:27;15.13;;;13.80;;
18612;SDS011;9436;52.152;21.032;2022-08-19T04:45:56;15.07;;;13.43;;
18612;SDS011;9436;52.152;21.032;2022-08-19T04:48:24;14.63;;;13.20;;
18612;SDS011;9436;52.152;21.032;2022-08-19T04:50:51;15.20;;;13.60;;
18612;SDS011;9436;52.152;21.032;2022-08-19T04:53:22;13.67;;;12.30;;
18612;SDS011;9436;52.152;21.032;2022-08-19T04:55:49;14.57;;;13.07;;
18612;SDS011;9436;52.152;21.032;2022-08-19T04:58:16;13.37;;;12.17;;
18612;SDS011;9436;52.152;21.032;2022-08-19T05:00:43;14.60;;;13.30;;
18612;SDS011;9436;52.152;21.032;2022-08-19T05:03:12;14.80;;;13.33;;
18612;SDS011;9436;52.152;21.032;2022-08-19T05:05:40;14.47;;;13.07;;
18612;SDS011;9436;52.152;21.032;2022-08-19T05:08:08;15.13;;;12.70;;
18612;SDS011;9436;52.152;21.032;2022-08-19T05:10:35;14.03;;;12.63;;
18612;SDS011;9436;52.152;21.032;2022-08-19T05:13:02;13.47;;;12.23;;
18612;SDS011;9436;52.152;21.032;2022-08-19T05:15:29;13.97;;;12.50;;
18612;SDS011;9436;52.152;21.032;2022-08-19T05:17:57;13.43;;;12.23;;
18612;SDS011;9436;52.152;21.032;2022-08-19T05:20:43;13.67;;;12.23;;
18612;SDS011;9436;52.152;21.032;2022-08-19T05:23:27;12.43;;;11.30;;
18612;SDS011;9436;52.152;21.032;2022-08-19T05:25:54;13.07;;;11.70;;
18612;SDS011;9436;52.152;21.032;2022-08-19T05:28:21;13.20;;;11.80;;
18612;SDS011;9436;52.152;21.032;2022-08-19T05:30:48;12.93;;;11.63;;
18612;SDS011;9436;52.152;21.032;2022-08-19T05:33:15;12.83;;;11.60;;
18612;SDS011;9436;52.152;21.032;2022-08-19T05:35:44;12.97;;;11.73;;
18612;SDS011;9436;52.152;21.032;2022-08-19T05:38:13;13.10;;;11.70;;
18612;SDS011;9436;52.152;21.032;2022-08-19T05:40:40;13.63;;;12.23;;
18612;SDS011;9436;52.152;21.032;2022-08-19T05:43:12;12.90;;;11.60;;
18612;SDS011;9436;52.152;21.032;2022-08-19T05:45:41;12.20;;;11.00;;
18612;SDS011;9436;52.152;21.032;2022-08-19T05:48:09;14.13;;;11.97;;
18612;SDS011;9436;52.152;21.032;2022-08-19T05:50:37;11.97;;;10.37;;
18612;SDS011;9436;52.152;21.032;2022-08-19T05:53:06;13.07;;;11.70;;
18612;SDS011;9436;52.152;21.032;2022-08-19T05:55:34;12.93;;;11.63;;
18612;SDS011;9436;52.152;21.032;2022-08-19T05:58:03;13.27;;;11.20;;
18612;SDS011;9436;52.152;21.032;2022-08-19T06:00:32;12.77;;;11.47;;
18612;SDS011;9436;52.152;21.032;2022-08-19T06:02:59;12.03;;;10.87;;
18612;SDS011;9436;52.152;21.032;2022-08-19T06:05:28;11.97;;;10.87;;
18612;SDS011;9436;52.152;21.032;2022-08-19T06:07:55;11.27;;;10.33;;
18612;SDS011;9436;52.152;21.032;2022-08-19T06:10:25;13.20;;;11.73;;
18612;SDS011;9436;52.152;21.032;2022-08-19T06:12:52;12.63;;;11.40;;
18612;SDS011;9436;52.152;21.032;2022-08-19T06:15:21;12.93;;;11.03;;
18612;SDS011;9436;52.152;21.032;2022-08-19T06:17:50;13.40;;;12.10;;
18612;SDS011;9436;52.152;21.032;2022-08-19T06:20:17;12.87;;;11.67;;
18612;SDS011;9436;52.152;21.032;2022-08-19T06:22:45;13.07;;;11.87;;
18612;SDS011;9436;52.152;21.032;2022-08-19T06:25:14;13.43;;;11.97;;
18612;SDS011;9436;52.152;21.032;2022-08-19T06:27:43;13.00;;;10.60;;
18612;SDS011;9436;52.152;21.032;2022-08-19T06:30:11;13.03;;;11.93;;
18612;SDS011;9436;52.152;21.032;2022-08-19T06:32:39;13.17;;;11.80;;
18612;SDS011;9436;52.152;21.032;2022-08-19T06:35:06;15.77;;;12.07;;
18612;SDS011;9436;52.152;21.032;2022-08-19T06:37:33;13.17;;;11.83;;
18612;SDS011;9436;52.152;21.032;2022-08-19T06:40:00;12.60;;;11.07;;
18612;SDS011;9436;52.152;21.032;2022-08-19T06:42:27;13.17;;;11.80;;
18612;SDS011;9436;52.152;21.032;2022-08-19T06:44:55;13.57;;;12.27;;
18612;SDS011;9436;52.152;21.032;2022-08-19T06:47:24;13.10;;;11.70;;
18612;SDS011;9436;52.152;21.032;2022-08-19T06:49:52;13.07;;;11.73;;
18612;SDS011;9436;52.152;21.032;2022-08-19T06:52:23;13.77;;;12.23;;
18612;SDS011;9436;52.152;21.032;2022-08-19T06:54:50;13.57;;;11.67;;
18612;SDS011;9436;52.152;21.032;2022-08-19T06:57:17;12.23;;;11.13;;
18612;SDS011;9436;52.152;21.032;2022-08-19T06:59:45;13.53;;;12.23;;
18612;SDS011;9436;52.152;21.032;2022-08-19T07:02:13;13.23;;;11.97;;
18612;SDS011;9436;52.152;21.032;2022-08-19T07:04:40;12.87;;;11.67;;
18612;SDS011;9436;52.152;21.032;2022-08-19T07:07:08;13.73;;;12.37;;
18612;SDS011;9436;52.152;21.032;2022-08-19T07:09:38;12.57;;;11.43;;
18612;SDS011;9436;52.152;21.032;2022-08-19T07:12:08;13.33;;;11.13;;
18612;SDS011;9436;52.152;21.032;2022-08-19T07:14:37;13.10;;;11.73;;
18612;SDS011;9436;52.152;21.032;2022-08-19T07:17:06;12.77;;;11.57;;
18612;SDS011;9436;52.152;21.032;2022-08-19T07:19:36;12.00;;;10.87;;
18612;SDS011;9436;52.152;21.032;2022-08-19T07:22:05;12.30;;;10.60;;
18612;SDS011;9436;52.152;21.032;2022-08-19T07:24:33;11.93;;;10.73;;
18612;SDS011;9436;52.152;21.032;2022-08-19T07:27:01;12.10;;;10.93;;
18612;SDS011;9436;52.152;21.032;2022-08-19T07:29:30;13.07;;;11.17;;
18612;SDS011;9436;52.152;21.032;2022-08-19T07:31:58;13.13;;;11.07;;
18612;SDS011;9436;52.152;21.032;2022-08-19T07:34:27;12.27;;;10.20;;
18612;SDS011;9436;52.152;21.032;2022-08-19T07:36:56;14.60;;;10.67;;
18612;SDS011;9436;52.152;21.032;2022-08-19T07:39:25;11.20;;;10.00;;
18612;SDS011;9436;52.152;21.032;2022-08-19T07:41:54;12.63;;;10.40;;
18612;SDS011;9436;52.152;21.032;2022-08-19T07:44:22;11.33;;;10.23;;
18612;SDS011;9436;52.152;21.032;2022-08-19T07:46:51;10.70;;;9.60;;
18612;SDS011;9436;52.152;21.032;2022-08-19T07:49:20;11.30;;;10.30;;
18612;SDS011;9436;52.152;21.032;2022-08-19T07:51:48;11.00;;;9.93;;
18612;SDS011;9436;52.152;21.032;2022-08-19T07:54:18;12.30;;;10.17;;
18612;SDS011;9436;52.152;21.032;2022-08-19T07:56:47;11.60;;;9.93;;
18612;SDS011;9436;52.152;21.032;2022-08-19T07:59:15;10.33;;;9.30;;
18612;SDS011;9436;52.152;21.032;2022-08-19T08:01:42;10.10;;;9.17;;
18612;SDS011;9436;52.152;21.032;2022-08-19T08:04:09;11.00;;;9.93;;
18612;SDS011;9436;52.152;21.032;2022-08-19T08:06:54;11.40;;;10.07;;
18612;SDS011;9436;52.152;21.032;2022-08-19T08:09:41;11.17;;;10.07;;
18612;SDS011;9436;52.152;21.032;2022-08-19T08:12:10;11.77;;;10.57;;
18612;SDS011;9436;52.152;21.032;2022-08-19T08:14:40;12.80;;;10.57;;
18612;SDS011;9436;52.152;21.032;2022-08-19T08:17:08;15.87;;;10.67;;
18612;SDS011;9436;52.152;21.032;2022-08-19T08:19:37;11.63;;;10.53;;
18612;SDS011;9436;52.152;21.032;2022-08-19T08:22:06;11.33;;;10.07;;
18612;SDS011;9436;52.152;21.032;2022-08-19T08:24:33;11.10;;;9.97;;
18612;SDS011;9436;52.152;21.032;2022-08-19T08:27:02;11.27;;;10.13;;
18612;SDS011;9436;52.152;21.032;2022-08-19T08:29:29;10.77;;;9.73;;
18612;SDS011;9436;52.152;21.032;2022-08-19T08:31:56;11.60;;;10.60;;
18612;SDS011;9436;52.152;21.032;2022-08-19T08:34:23;11.90;;;10.60;;
18612;SDS011;9436;52.152;21.032;2022-08-19T08:36:50;12.67;;;9.70;;
18612;SDS011;9436;52.152;21.032;2022-08-19T08:39:18;12.20;;;10.37;;
18612;SDS011;9436;52.152;21.032;2022-08-19T08:41:49;11.70;;;10.50;;
18612;SDS011;9436;52.152;21.032;2022-08-19T08:44:22;11.67;;;10.50;;
18612;SDS011;9436;52.152;21.032;2022-08-19T08:46:55;11.60;;;10.40;;
18612;SDS011;9436;52.152;21.032;2022-08-19T08:49:28;11.13;;;9.87;;
18612;SDS011;9436;52.152;21.032;2022-08-19T08:52:00;13.67;;;10.30;;
18612;SDS011;9436;52.152;21.032;2022-08-19T08:54:33;10.00;;;9.20;;
18612;SDS011;9436;52.152;21.032;2022-08-19T08:57:02;15.00;;;12.40;;
18612;SDS011;9436;52.152;21.032;2022-08-19T08:59:36;9.53;;;8.30;;
18612;SDS011;9436;52.152;21.032;2022-08-19T09:02:05;10.40;;;9.27;;
18612;SDS011;9436;52.152;21.032;2022-08-19T09:04:33;9.93;;;8.90;;
18612;SDS011;9436;52.152;21.032;2022-08-19T09:07:04;11.43;;;8.43;;
18612;SDS011;9436;52.152;21.032;2022-08-19T09:09:41;11.87;;;9.17;;
18612;SDS011;9436;52.152;21.032;2022-08-19T09:12:11;10.17;;;8.73;;
18612;SDS011;9436;52.152;21.032;2022-08-19T09:14:48;11.80;;;8.97;;
18612;SDS011;9436;52.152;21.032;2022-08-19T09:17:19;9.03;;;8.27;;
18612;SDS011;9436;52.152;21.032;2022-08-19T09:19:56;9.13;;;8.33;;
18612;SDS011;9436;52.152;21.032;2022-08-19T09:22:26;9.00;;;8.10;;
18612;SDS011;9436;52.152;21.032;2022-08-19T09:24:53;9.73;;;8.57;;
18612;SDS011;9436;52.152;21.032;2022-08-19T09:27:20;9.27;;;8.37;;
18612;SDS011;9436;52.152;21.032;2022-08-19T09:29:51;9.83;;;8.13;;
18612;SDS011;9436;52.152;21.032;2022-08-19T09:32:18;10.47;;;8.07;;
18612;SDS011;9436;52.152;21.032;2022-08-19T09:34:46;9.67;;;8.00;;
18612;SDS011;9436;52.152;21.032;2022-08-19T09:37:13;10.40;;;8.20;;
18612;SDS011;9436;52.152;21.032;2022-08-19T09:39:40;10.10;;;8.33;;
18612;SDS011;9436;52.152;21.032;2022-08-19T09:42:07;10.83;;;8.17;;
18612;SDS011;9436;52.152;21.032;2022-08-19T09:44:37;11.33;;;8.30;;
18612;SDS011;9436;52.152;21.032;2022-08-19T09:47:05;11.83;;;9.20;;
18612;SDS011;9436;52.152;21.032;2022-08-19T09:49:36;9.47;;;8.57;;
18612;SDS011;9436;52.152;21.032;2022-08-19T09:52:04;9.37;;;8.00;;
18612;SDS011;9436;52.152;21.032;2022-08-19T09:54:32;9.77;;;8.10;;
18612;SDS011;9436;52.152;21.032;2022-08-19T09:57:00;9.00;;;7.77;;
18612;SDS011;9436;52.152;21.032;2022-08-19T09:59:27;9.07;;;7.60;;
18612;SDS011;9436;52.152;21.032;2022-08-19T10:01:54;11.60;;;8.07;;
18612;SDS011;9436;52.152;21.032;2022-08-19T10:04:23;9.40;;;7.65;;
18612;SDS011;9436;52.152;21.032;2022-08-19T10:07:11;9.45;;;8.55;;
18612;SDS011;9436;52.152;21.032;2022-08-19T10:09:38;10.67;;;7.63;;
18612;SDS011;9436;52.152;21.032;2022-08-19T10:12:06;10.45;;;7.68;;
18612;SDS011;9436;52.152;21.032;2022-08-19T10:14:34;8.68;;;7.72;;
18612;SDS011;9436;52.152;21.032;2022-08-19T10:17:01;10.37;;;8.10;;
18612;SDS011;9436;52.152;21.032;2022-08-19T10:19:30;8.45;;;7.53;;
18612;SDS011;9436;52.152;21.032;2022-08-19T10:22:02;10.10;;;7.45;;
18612;SDS011;9436;52.152;21.032;2022-08-19T10:24:29;9.18;;;7.75;;
18612;SDS011;9436;52.152;21.032;2022-08-19T10:26:57;11.40;;;8.70;;
18612;SDS011;9436;52.152;21.032;2022-08-19T10:29:24;8.82;;;7.93;;
18612;SDS011;9436;52.152;21.032;2022-08-19T10:31:53;8.88;;;7.85;;
18612;SDS011;9436;52.152;21.032;2022-08-19T10:34:20;9.07;;;7.95;;
18612;SDS011;9436;52.152;21.032;2022-08-19T10:36:49;8.25;;;7.40;;
18612;SDS011;9436;52.152;21.032;2022-08-19T10:39:16;10.32;;;8.15;;
18612;SDS011;9436;52.152;21.032;2022-08-19T10:41:43;9.95;;;7.85;;
18612;SDS011;9436;52.152;21.032;2022-08-19T10:44:11;8.68;;;7.82;;
18612;SDS011;9436;52.152;21.032;2022-08-19T10:46:41;10.65;;;8.05;;
18612;SDS011;9436;52.152;21.032;2022-08-19T10:49:12;8.35;;;7.60;;
18612;SDS011;9436;52.152;21.032;2022-08-19T10:51:39;10.10;;;7.32;;
18612;SDS011;9436;52.152;21.032;2022-08-19T10:54:26;8.48;;;7.57;;
18612;SDS011;9436;52.152;21.032;2022-08-19T10:57:07;10.20;;;7.95;;
18612;SDS011;9436;52.152;21.032;2022-08-19T10:59:34;9.77;;;7.95;;
18612;SDS011;9436;52.152;21.032;2022-08-19T11:02:03;9.82;;;8.50;;
18612;SDS011;9436;52.152;21.032;2022-08-19T11:04:34;12.15;;;8.52;;
18612;SDS011;9436;52.152;21.032;2022-08-19T11:07:02;9.23;;;8.20;;
18612;SDS011;9436;52.152;21.032;2022-08-19T11:09:31;14.88;;;8.63;;
18612;SDS011;9436;52.152;21.032;2022-08-19T11:12:04;9.15;;;8.35;;
18612;SDS011;9436;52.152;21.032;2022-08-19T11:14:33;9.32;;;8.38;;
18612;SDS011;9436;52.152;21.032;2022-08-19T11:17:01;9.15;;;8.25;;
18612;SDS011;9436;52.152;21.032;2022-08-19T11:19:29;9.15;;;8.20;;
18612;SDS011;9436;52.152;21.032;2022-08-19T11:21:57;10.20;;;8.90;;
18612;SDS011;9436;52.152;21.032;2022-08-19T11:24:27;10.25;;;8.43;;
18612;SDS011;9436;52.152;21.032;2022-08-19T11:27:02;10.48;;;8.30;;
18612;SDS011;9436;52.152;21.032;2022-08-19T11:29:31;9.25;;;8.27;;
18612;SDS011;9436;52.152;21.032;2022-08-19T11:31:59;8.80;;;7.90;;
18612;SDS011;9436;52.152;21.032;2022-08-19T11:34:29;8.30;;;7.55;;
18612;SDS011;9436;52.152;21.032;2022-08-19T11:36:57;9.27;;;7.47;;
18612;SDS011;9436;52.152;21.032;2022-08-19T11:39:25;8.98;;;7.80;;
18612;SDS011;9436;52.152;21.032;2022-08-19T11:41:53;9.85;;;8.32;;
18612;SDS011;9436;52.152;21.032;2022-08-19T11:44:22;10.63;;;7.82;;
18612;SDS011;9436;52.152;21.032;2022-08-19T11:46:49;12.07;;;7.88;;
18612;SDS011;9436;52.152;21.032;2022-08-19T11:49:17;8.27;;;7.45;;
18612;SDS011;9436;52.152;21.032;2022-08-19T11:51:46;7.88;;;7.13;;
18612;SDS011;9436;52.152;21.032;2022-08-19T11:54:15;8.45;;;7.75;;
18612;SDS011;9436;52.152;21.032;2022-08-19T11:56:43;10.88;;;8.10;;
18612;SDS011;9436;52.152;21.032;2022-08-19T11:59:12;8.40;;;7.05;;
18612;SDS011;9436;52.152;21.032;2022-08-19T12:01:41;8.68;;;7.30;;
18612;SDS011;9436;52.152;21.032;2022-08-19T12:04:08;10.27;;;7.28;;
18612;SDS011;9436;52.152;21.032;2022-08-19T12:06:37;8.30;;;7.50;;
18612;SDS011;9436;52.152;21.032;2022-08-19T12:09:06;9.20;;;7.30;;
18612;SDS011;9436;52.152;21.032;2022-08-19T12:11:34;8.02;;;7.32;;
18612;SDS011;9436;52.152;21.032;2022-08-19T12:14:02;9.55;;;7.65;;
18612;SDS011;9436;52.152;21.032;2022-08-19T12:16:30;8.95;;;7.90;;
18612;SDS011;9436;52.152;21.032;2022-08-19T12:18:59;8.20;;;7.40;;
18612;SDS011;9436;52.152;21.032;2022-08-19T12:21:29;8.20;;;7.50;;
18612;SDS011;9436;52.152;21.032;2022-08-19T12:23:57;11.23;;;7.57;;
18612;SDS011;9436;52.152;21.032;2022-08-19T12:26:25;7.95;;;7.25;;
18612;SDS011;9436;52.152;21.032;2022-08-19T12:28:54;8.10;;;7.18;;
18612;SDS011;9436;52.152;21.032;2022-08-19T12:31:21;8.15;;;7.30;;
18612;SDS011;9436;52.152;21.032;2022-08-19T12:33:48;7.47;;;6.78;;
18612;SDS011;9436;52.152;21.032;2022-08-19T12:36:18;8.50;;;6.75;;
18612;SDS011;9436;52.152;21.032;2022-08-19T12:38:46;8.98;;;7.35;;
18612;SDS011;9436;52.152;21.032;2022-08-19T12:41:14;10.43;;;6.72;;
18612;SDS011;9436;52.152;21.032;2022-08-19T12:43:43;10.52;;;7.47;;
18612;SDS011;9436;52.152;21.032;2022-08-19T12:46:10;8.07;;;6.63;;
18612;SDS011;9436;52.152;21.032;2022-08-19T12:48:39;7.20;;;6.60;;
18612;SDS011;9436;52.152;21.032;2022-08-19T12:51:07;9.15;;;7.03;;
18612;SDS011;9436;52.152;21.032;2022-08-19T12:53:36;11.57;;;6.80;;
18612;SDS011;9436;52.152;21.032;2022-08-19T12:56:04;7.60;;;6.90;;
18612;SDS011;9436;52.152;21.032;2022-08-19T12:58:31;7.70;;;6.90;;
18612;SDS011;9436;52.152;21.032;2022-08-19T13:00:59;7.25;;;6.53;;
18612;SDS011;9436;52.152;21.032;2022-08-19T13:03:26;9.88;;;7.13;;
18612;SDS011;9436;52.152;21.032;2022-08-19T13:05:54;9.48;;;6.10;;
18612;SDS011;9436;52.152;21.032;2022-08-19T13:08:22;7.65;;;6.65;;
18612;SDS011;9436;52.152;21.032;2022-08-19T13:10:50;7.93;;;6.45;;
18612;SDS011;9436;52.152;21.032;2022-08-19T13:13:18;8.40;;;7.13;;
18612;SDS011;9436;52.152;21.032;2022-08-19T13:15:45;7.65;;;6.55;;
18612;SDS011;9436;52.152;21.032;2022-08-19T13:18:12;9.10;;;6.18;;
18612;SDS011;9436;52.152;21.032;2022-08-19T13:20:39;7.47;;;6.20;;
18612;SDS011;9436;52.152;21.032;2022-08-19T13:23:06;9.25;;;6.85;;
18612;SDS011;9436;52.152;21.032;2022-08-19T13:25:35;7.60;;;6.78;;
18612;SDS011;9436;52.152;21.032;2022-08-19T13:28:03;7.50;;;6.20;;
18612;SDS011;9436;52.152;21.032;2022-08-19T13:30:31;9.52;;;6.65;;
18612;SDS011;9436;52.152;21.032;2022-08-19T13:33:16;7.00;;;6.30;;
18612;SDS011;9436;52.152;21.032;2022-08-19T13:35:45;7.93;;;6.60;;
18612;SDS011;9436;52.152;21.032;2022-08-19T13:38:14;10.48;;;6.88;;
18612;SDS011;9436;52.152;21.032;2022-08-19T13:40:42;8.07;;;6.38;;
18612;SDS011;9436;52.152;21.032;2022-08-19T13:43:11;8.43;;;6.85;;
18612;SDS011;9436;52.152;21.032;2022-08-19T13:45:38;7.20;;;6.28;;
18612;SDS011;9436;52.152;21.032;2022-08-19T13:48:06;7.85;;;6.07;;
18612;SDS011;9436;52.152;21.032;2022-08-19T13:50:35;7.00;;;6.40;;
18612;SDS011;9436;52.152;21.032;2022-08-19T13:53:06;8.35;;;6.32;;
18612;SDS011;9436;52.152;21.032;2022-08-19T13:55:34;6.82;;;5.63;;
18612;SDS011;9436;52.152;21.032;2022-08-19T13:58:02;10.10;;;6.10;;
18612;SDS011;9436;52.152;21.032;2022-08-19T14:00:32;7.78;;;5.90;;
18612;SDS011;9436;52.152;21.032;2022-08-19T14:03:03;7.53;;;6.18;;
18612;SDS011;9436;52.152;21.032;2022-08-19T14:05:31;11.05;;;6.03;;
18612;SDS011;9436;52.152;21.032;2022-08-19T14:07:59;8.13;;;5.68;;
18612;SDS011;9436;52.152;21.032;2022-08-19T14:10:26;6.45;;;5.75;;
18612;SDS011;9436;52.152;21.032;2022-08-19T14:12:57;6.95;;;5.97;;
18612;SDS011;9436;52.152;21.032;2022-08-19T14:15:25;7.85;;;5.93;;
18612;SDS011;9436;52.152;21.032;2022-08-19T14:17:54;6.35;;;5.57;;
18612;SDS011;9436;52.152;21.032;2022-08-19T14:20:22;6.38;;;5.38;;
18612;SDS011;9436;52.152;21.032;2022-08-19T14:22:49;7.60;;;5.80;;
18612;SDS011;9436;52.152;21.032;2022-08-19T14:25:17;7.50;;;5.40;;
18612;SDS011;9436;52.152;21.032;2022-08-19T14:27:47;8.95;;;5.82;;
18612;SDS011;9436;52.152;21.032;2022-08-19T14:30:18;10.38;;;5.78;;
18612;SDS011;9436;52.152;21.032;2022-08-19T14:32:48;6.95;;;5.57;;
18612;SDS011;9436;52.152;21.032;2022-08-19T14:35:16;7.47;;;5.45;;
18612;SDS011;9436;52.152;21.032;2022-08-19T14:37:43;6.30;;;5.60;;
18612;SDS011;9436;52.152;21.032;2022-08-19T14:40:11;7.32;;;5.60;;